createdAt,value
2023-05-19T00:01:30.054Z,3.10
2023-05-19T00:03:59.154Z,3.10
2023-05-19T00:06:33.514Z,4.40
2023-05-19T00:09:03.463Z,6.70
2023-05-19T00:11:31.619Z,8.10
2023-05-19T00:17:07.962Z,8.20
2023-05-19T00:19:34.987Z,8.30
2023-05-19T00:22:02.201Z,8.20
2023-05-19T00:24:30.673Z,9.10
2023-05-19T00:26:57.997Z,9.50
2023-05-19T00:29:25.298Z,8.80
2023-05-19T00:31:52.794Z,9.10
2023-05-19T00:34:20.059Z,8.50
2023-05-19T00:36:47.058Z,10.00
2023-05-19T00:39:14.365Z,9.60
2023-05-19T00:41:41.869Z,9.90
2023-05-19T00:44:08.947Z,11.00
2023-05-19T00:46:36.234Z,11.90
2023-05-19T00:49:03.799Z,11.90
2023-05-19T00:51:31.453Z,12.10
2023-05-19T00:53:58.647Z,13.30
2023-05-19T00:56:26.593Z,13.20
2023-05-19T00:58:54.984Z,13.20
2023-05-19T01:01:23.362Z,13.20
2023-05-19T01:03:51.482Z,13.20
2023-05-19T01:06:22.996Z,13.50
2023-05-19T01:08:51.739Z,13.90
2023-05-19T01:11:19.122Z,14.60
2023-05-19T01:13:46.437Z,15.60
2023-05-19T01:17:05.399Z,16.10
2023-05-19T01:20:02.282Z,16.20
2023-05-19T01:22:55.057Z,17.70
2023-05-19T01:25:28.128Z,18.10
2023-05-19T01:28:22.424Z,18.00
2023-05-19T01:30:55.728Z,19.30
2023-05-19T01:33:24.593Z,20.60
2023-05-19T01:35:54.973Z,21.90
2023-05-19T01:38:23.491Z,20.80
2023-05-19T01:40:51.681Z,19.90
2023-05-19T01:43:24.066Z,20.00
2023-05-19T01:45:53.475Z,19.70
2023-05-19T01:48:21.802Z,20.60
2023-05-19T01:50:49.208Z,21.40
2023-05-19T01:53:16.387Z,20.30
2023-05-19T01:55:49.724Z,21.40
2023-05-19T01:58:28.661Z,21.70
2023-05-19T02:01:14.120Z,21.50
2023-05-19T02:04:06.591Z,22.50
2023-05-19T02:07:21.421Z,23.50
2023-05-19T02:10:03.887Z,22.80
2023-05-19T02:12:40.189Z,23.10
2023-05-19T02:15:12.447Z,22.80
2023-05-19T02:17:47.776Z,24.40
2023-05-19T02:20:18.712Z,24.60
2023-05-19T02:22:46.151Z,24.70
2023-05-19T02:25:14.148Z,26.50
2023-05-19T02:27:42.096Z,26.30
2023-05-19T02:30:10.103Z,27.20
2023-05-19T02:32:37.510Z,26.60
2023-05-19T02:35:05.198Z,27.70
2023-05-19T02:37:32.545Z,29.20
2023-05-19T02:39:59.839Z,28.10
2023-05-19T02:42:27.011Z,28.10
2023-05-19T02:44:55.190Z,29.00
2023-05-19T02:47:22.502Z,29.50
2023-05-19T02:49:49.693Z,29.50
2023-05-19T02:52:17.026Z,31.30
2023-05-19T02:54:51.746Z,32.00
2023-05-19T02:57:19.114Z,31.00
2023-05-19T02:59:46.108Z,30.70
2023-05-19T03:02:13.215Z,30.70
2023-05-19T03:04:43.215Z,31.70
2023-05-19T03:07:10.803Z,32.20
2023-05-19T03:09:38.075Z,31.00
2023-05-19T03:12:07.533Z,33.30
2023-05-19T03:14:37.796Z,32.80
2023-05-19T03:17:08.449Z,32.60
2023-05-19T03:19:35.870Z,32.60
2023-05-19T03:22:03.109Z,32.90
2023-05-19T03:24:30.823Z,33.60
2023-05-19T03:26:58.143Z,34.20
2023-05-19T03:29:25.514Z,33.50
2023-05-19T03:31:53.593Z,33.90
2023-05-19T03:34:23.583Z,32.90
2023-05-19T03:36:52.132Z,33.60
2023-05-19T03:39:22.497Z,33.50
2023-05-19T03:41:56.760Z,34.60
2023-05-19T03:44:24.141Z,34.70
2023-05-19T03:46:52.120Z,36.50
2023-05-19T03:49:37.959Z,36.20
2023-05-19T03:52:39.988Z,36.40
2023-05-19T03:55:20.286Z,37.00
2023-05-19T03:57:47.616Z,36.70
2023-05-19T04:00:15.335Z,36.40
2023-05-19T04:03:24.864Z,37.20
2023-05-19T04:06:16.837Z,36.70
2023-05-19T04:09:37.385Z,36.30
2023-05-19T04:16:37.764Z,37.20
2023-05-19T04:19:06.265Z,37.00
2023-05-19T04:21:36.050Z,37.60
2023-05-19T04:24:06.504Z,38.20
2023-05-19T04:26:40.827Z,39.20
2023-05-19T04:29:08.899Z,37.60
2023-05-19T04:31:36.553Z,36.80
2023-05-19T04:34:08.054Z,36.10
2023-05-19T04:37:01.120Z,36.20
2023-05-19T04:39:29.520Z,36.10
2023-05-19T04:41:56.709Z,36.50
2023-05-19T04:44:24.295Z,38.00
2023-05-19T04:46:54.650Z,38.10
2023-05-19T04:49:24.530Z,38.40
2023-05-19T04:51:59.762Z,37.20
2023-05-19T04:54:55.689Z,36.10
2023-05-19T04:57:24.254Z,37.10
2023-05-19T05:02:59.172Z,37.60
2023-05-19T05:05:44.457Z,36.90
2023-05-19T05:08:40.214Z,36.80
2023-05-19T05:11:08.235Z,37.00
2023-05-19T05:13:39.342Z,37.60
2023-05-19T05:16:08.556Z,38.00
2023-05-19T05:18:47.844Z,38.20
2023-05-19T05:21:20.943Z,36.60
2023-05-19T05:23:48.358Z,37.30
2023-05-19T05:26:21.529Z,37.50
2023-05-19T05:28:50.675Z,35.40
2023-05-19T05:31:18.011Z,36.30
2023-05-19T05:33:45.652Z,36.40
2023-05-19T05:36:14.757Z,36.90
2023-05-19T05:38:42.697Z,36.20
2023-05-19T05:41:10.216Z,36.00
2023-05-19T05:43:38.018Z,34.60
2023-05-19T05:46:05.817Z,35.20
2023-05-19T05:52:04.330Z,33.70
2023-05-19T05:54:47.734Z,33.00
2023-05-19T05:57:18.090Z,33.30
2023-05-19T05:59:47.419Z,33.60
2023-05-19T06:08:44.426Z,31.60
2023-05-19T06:11:12.122Z,30.10
2023-05-19T06:13:44.142Z,30.00
2023-05-19T06:16:27.306Z,30.10
2023-05-19T06:18:54.749Z,30.10
2023-05-19T06:21:22.133Z,30.10
2023-05-19T06:23:51.396Z,30.20
2023-05-19T06:26:21.638Z,30.10
2023-05-19T06:28:52.434Z,28.10
2023-05-19T06:31:20.985Z,28.00
2023-05-19T06:35:07.035Z,27.70
2023-05-19T06:37:23.858Z,25.90
2023-05-19T06:40:01.355Z,24.40
2023-05-19T06:42:28.979Z,24.30
2023-05-19T06:45:07.010Z,21.20
2023-05-19T06:47:34.580Z,19.40
2023-05-19T06:51:02.420Z,18.60
2023-05-19T06:53:40.982Z,18.40
2023-05-19T06:56:10.066Z,17.40
2023-05-19T06:58:39.728Z,16.10
2023-05-19T07:01:10.416Z,14.70
2023-05-19T07:07:28.486Z,13.40
2023-05-19T07:10:02.806Z,12.90
2023-05-19T07:12:37.830Z,13.00
2023-05-19T07:15:09.436Z,13.80
2023-05-19T07:17:38.890Z,10.50
2023-05-19T07:20:07.081Z,8.80
2023-05-19T07:22:35.374Z,9.30
2023-05-19T07:25:03.359Z,8.80
2023-05-19T07:27:30.699Z,8.80
2023-05-19T07:30:00.634Z,8.20
2023-05-19T07:32:28.162Z,8.90
2023-05-19T07:35:07.829Z,8.90
2023-05-19T07:37:35.300Z,5.60
2023-05-19T07:40:03.000Z,5.00
2023-05-19T07:46:58.179Z,3.80
2023-05-19T07:49:30.694Z,3.40
2023-05-19T07:52:00.734Z,3.40
2023-05-19T07:54:32.116Z,2.30
2023-05-19T07:57:03.712Z,1.00
2023-05-19T07:59:40.299Z,1.00
2023-05-19T08:02:12.706Z,1.00
2023-05-19T08:04:43.455Z,1.00
2023-05-19T08:07:21.212Z,1.00
2023-05-19T08:09:52.960Z,1.00
2023-05-19T08:12:31.684Z,1.00
2023-05-19T08:15:41.871Z,1.00
2023-05-19T08:18:17.955Z,1.00
2023-05-19T08:20:57.504Z,1.00
2023-05-19T08:27:53.506Z,1.00
2023-05-19T08:30:28.693Z,1.00
2023-05-19T08:32:55.951Z,1.00
2023-05-19T08:35:23.229Z,1.00
2023-05-19T08:37:53.443Z,1.00
2023-05-19T08:43:42.894Z,1.00
2023-05-19T08:55:08.266Z,1.00
2023-05-19T08:57:41.393Z,1.00
2023-05-19T09:01:07.552Z,1.00
2023-05-19T09:03:50.874Z,1.00
2023-05-19T09:06:53.437Z,1.00
2023-05-19T09:13:20.747Z,1.00
2023-05-19T09:19:29.823Z,1.00
2023-05-19T09:22:04.164Z,1.00
2023-05-19T09:25:07.320Z,1.00
2023-05-19T09:27:36.970Z,1.00
2023-05-19T09:30:13.324Z,1.00
2023-05-19T09:32:48.492Z,1.00
2023-05-19T09:35:26.770Z,1.00
2023-05-19T09:38:08.083Z,1.00
2023-05-19T09:40:41.675Z,1.00
2023-05-19T09:43:21.167Z,1.00
2023-05-19T09:50:45.673Z,1.00
2023-05-19T09:53:18.815Z,1.00
2023-05-19T09:55:46.184Z,1.00
2023-05-19T09:58:20.251Z,1.00
2023-05-19T10:00:48.627Z,1.00
2023-05-19T10:03:20.247Z,1.00
2023-05-19T10:13:37.692Z,1.00
2023-05-19T10:16:56.079Z,1.00
2023-05-19T10:19:28.212Z,1.00
2023-05-19T10:26:06.807Z,1.00
2023-05-19T10:29:00.163Z,1.00
2023-05-19T10:32:01.377Z,1.00
2023-05-19T10:35:12.350Z,1.00
2023-05-19T10:43:01.028Z,1.00
2023-05-19T10:45:47.779Z,1.00
2023-05-19T10:52:55.713Z,1.00
2023-05-19T10:55:45.593Z,1.00
2023-05-19T10:58:16.964Z,1.00
2023-05-19T11:00:44.520Z,1.00
2023-05-19T11:03:24.675Z,1.00
2023-05-19T11:05:52.406Z,1.00
2023-05-19T11:08:34.119Z,1.00
2023-05-19T11:11:15.548Z,1.00
2023-05-19T11:13:56.590Z,1.00
2023-05-19T11:16:32.522Z,1.00
2023-05-19T11:19:00.389Z,1.00
2023-05-19T11:21:55.026Z,1.00
2023-05-19T11:25:19.413Z,1.00
2023-05-19T11:27:47.162Z,1.00
2023-05-19T11:30:16.066Z,1.00
2023-05-19T11:32:47.512Z,1.00
2023-05-19T11:35:16.897Z,1.00
2023-05-19T11:37:44.452Z,1.00
2023-05-19T11:40:15.806Z,1.00
2023-05-19T11:42:44.976Z,1.00
2023-05-19T11:45:12.320Z,1.00
2023-05-19T11:47:56.405Z,1.00
2023-05-19T11:50:26.944Z,1.00
2023-05-19T11:52:56.358Z,1.00
2023-05-19T11:55:23.862Z,1.00
2023-05-19T11:58:05.639Z,1.00
2023-05-19T12:00:39.470Z,1.00
2023-05-19T12:03:07.504Z,1.00
2023-05-19T12:05:41.837Z,1.00
2023-05-19T12:08:11.064Z,1.00
2023-05-19T12:10:39.372Z,1.00
2023-05-19T12:13:09.147Z,1.00
2023-05-19T12:15:36.807Z,1.00
2023-05-19T12:18:07.501Z,1.00
2023-05-19T12:20:36.176Z,1.00
2023-05-19T12:23:04.553Z,1.00
2023-05-19T12:25:32.386Z,1.00
2023-05-19T12:28:03.224Z,1.00
2023-05-19T12:30:32.344Z,1.00
2023-05-19T12:33:00.008Z,1.00
2023-05-19T12:35:36.584Z,1.00
2023-05-19T12:38:09.499Z,1.00
2023-05-19T12:40:37.566Z,1.00
2023-05-19T12:43:06.852Z,1.00
2023-05-19T12:45:38.448Z,1.00
2023-05-19T12:48:12.697Z,1.00
2023-05-19T12:50:40.124Z,1.00
2023-05-19T12:53:12.036Z,1.00
2023-05-19T12:55:43.482Z,1.00
2023-05-19T12:58:12.343Z,1.00
2023-05-19T13:00:45.033Z,1.00
2023-05-19T13:03:20.186Z,1.00
2023-05-19T13:05:50.376Z,1.00
2023-05-19T13:08:24.185Z,1.00
2023-05-19T13:10:51.458Z,1.00
2023-05-19T13:13:18.579Z,1.00
2023-05-19T13:15:48.876Z,1.00
2023-05-19T13:18:16.564Z,1.00
2023-05-19T13:20:45.082Z,1.00
2023-05-19T13:23:13.107Z,1.00
2023-05-19T13:25:41.555Z,1.00
2023-05-19T13:28:09.296Z,1.00
2023-05-19T13:30:38.705Z,1.00
2023-05-19T13:33:06.624Z,1.00
2023-05-19T13:35:37.456Z,1.00
2023-05-19T13:38:11.417Z,1.00
2023-05-19T13:40:39.704Z,1.00
2023-05-19T13:43:07.829Z,1.00
2023-05-19T13:45:35.057Z,1.00
2023-05-19T13:48:02.744Z,1.00
2023-05-19T13:50:30.318Z,1.00
2023-05-19T13:52:57.418Z,1.00
2023-05-19T13:55:27.180Z,1.00
2023-05-19T13:57:54.309Z,1.00
2023-05-19T14:00:21.494Z,1.00
2023-05-19T14:02:48.554Z,1.00
2023-05-19T14:05:15.626Z,1.00
2023-05-19T14:07:42.680Z,1.00
2023-05-19T14:10:10.212Z,1.00
2023-05-19T14:12:55.060Z,1.00
2023-05-19T14:15:24.367Z,1.00
2023-05-19T14:17:53.244Z,1.00
2023-05-19T14:20:20.405Z,1.00
2023-05-19T14:22:47.455Z,1.00
2023-05-19T14:25:14.789Z,1.00
2023-05-19T14:27:41.826Z,1.00
2023-05-19T14:30:10.289Z,1.00
2023-05-19T14:32:37.513Z,1.00
2023-05-19T14:35:05.247Z,1.00
2023-05-19T14:37:32.605Z,1.00
2023-05-19T14:39:59.984Z,1.00
2023-05-19T14:42:27.042Z,1.00
2023-05-19T14:44:53.985Z,1.00
2023-05-19T14:47:21.502Z,1.00
2023-05-19T14:49:48.698Z,1.00
2023-05-19T14:52:15.835Z,1.00
2023-05-19T14:54:42.899Z,1.00
2023-05-19T14:57:09.864Z,1.00
2023-05-19T14:59:40.104Z,1.00
2023-05-19T15:02:07.570Z,1.00
2023-05-19T15:04:34.517Z,1.00
2023-05-19T15:07:09.670Z,1.00
2023-05-19T15:09:37.958Z,1.00
2023-05-19T15:12:05.336Z,1.00
2023-05-19T15:14:32.454Z,1.00
2023-05-19T15:16:59.621Z,1.00
2023-05-19T15:19:26.915Z,1.00
2023-05-19T15:21:54.216Z,1.00
2023-05-19T15:24:21.355Z,1.00
2023-05-19T15:26:49.690Z,1.00
2023-05-19T15:29:16.839Z,1.00
2023-05-19T15:31:44.032Z,1.00
2023-05-19T15:34:11.046Z,1.00
2023-05-19T15:36:38.005Z,1.00
2023-05-19T15:39:05.296Z,1.00
2023-05-19T15:41:32.402Z,1.00
2023-05-19T15:44:02.655Z,1.00
2023-05-19T15:46:30.012Z,1.00
2023-05-19T15:48:57.288Z,1.00
2023-05-19T15:51:24.726Z,1.00
2023-05-19T15:53:52.176Z,1.00
2023-05-19T15:56:22.504Z,1.00
2023-05-19T15:58:50.018Z,1.00
2023-05-19T16:01:17.908Z,1.00
2023-05-19T16:03:46.000Z,1.00
2023-05-19T16:06:13.449Z,1.00
2023-05-19T16:08:41.323Z,1.00
2023-05-19T16:11:08.679Z,1.00
2023-05-19T16:13:35.955Z,1.00
2023-05-19T16:16:03.156Z,1.00
2023-05-19T16:18:30.377Z,1.00
2023-05-19T16:20:58.806Z,1.00
2023-05-19T16:23:27.364Z,1.00
2023-05-19T16:25:56.549Z,1.00
2023-05-19T16:28:25.023Z,1.00
2023-05-19T16:30:52.285Z,1.00
2023-05-19T16:33:19.346Z,1.00
2023-05-19T16:35:46.489Z,1.00
2023-05-19T16:38:13.618Z,1.00
2023-05-19T16:40:41.528Z,1.00
2023-05-19T16:43:09.434Z,1.00
2023-05-19T16:45:36.651Z,1.00
2023-05-19T16:48:05.240Z,1.00
2023-05-19T16:50:32.327Z,1.00
2023-05-19T16:52:59.456Z,1.00
2023-05-19T16:55:27.064Z,1.00
2023-05-19T16:57:54.347Z,1.00
2023-05-19T17:00:21.425Z,1.00
2023-05-19T17:02:48.538Z,1.00
2023-05-19T17:05:18.232Z,1.00
2023-05-19T17:07:45.432Z,1.00
2023-05-19T17:10:13.537Z,1.00
2023-05-19T17:12:41.250Z,1.00
2023-05-19T17:15:08.695Z,1.00
2023-05-19T17:17:37.074Z,1.00
2023-05-19T17:20:04.265Z,1.00
2023-05-19T17:22:31.349Z,1.00
2023-05-19T17:24:58.555Z,1.00
2023-05-19T17:27:25.674Z,1.00
2023-05-19T17:29:52.796Z,1.00
2023-05-19T17:32:25.741Z,1.00
2023-05-19T17:34:53.000Z,1.00
2023-05-19T17:37:23.472Z,1.00
2023-05-19T17:39:50.921Z,1.00
2023-05-19T17:42:17.878Z,1.00
2023-05-19T17:44:47.311Z,1.00
2023-05-19T17:47:14.600Z,1.00
2023-05-19T17:49:41.743Z,1.00
2023-05-19T17:52:09.466Z,1.00
2023-05-19T17:54:36.820Z,1.00
2023-05-19T17:57:09.921Z,1.00
2023-05-19T17:59:37.268Z,1.00
2023-05-19T18:02:04.901Z,1.00
2023-05-19T18:04:32.605Z,1.00
2023-05-19T18:07:02.541Z,1.00
2023-05-19T18:09:31.395Z,1.00
2023-05-19T18:12:02.042Z,1.00
2023-05-19T18:14:29.201Z,1.00
2023-05-19T18:16:56.217Z,1.00
2023-05-19T18:19:23.445Z,1.00
2023-05-19T18:21:51.984Z,1.00
2023-05-19T18:24:19.195Z,1.00
2023-05-19T18:26:46.848Z,1.00
2023-05-19T18:29:16.811Z,1.00
2023-05-19T18:31:43.938Z,1.00
2023-05-19T18:34:11.226Z,1.00
2023-05-19T18:36:38.390Z,1.00
2023-05-19T18:39:06.650Z,1.00
2023-05-19T18:41:37.432Z,1.00
2023-05-19T18:44:06.343Z,1.00
2023-05-19T18:46:34.035Z,1.00
2023-05-19T18:49:03.843Z,1.00
2023-05-19T18:51:33.513Z,1.00
2023-05-19T18:54:00.995Z,1.00
2023-05-19T18:56:32.198Z,1.00
2023-05-19T18:58:59.245Z,1.00
2023-05-19T19:01:27.487Z,1.00
2023-05-19T19:03:56.495Z,1.00
2023-05-19T19:06:23.718Z,1.00
2023-05-19T19:08:51.159Z,1.00
2023-05-19T19:11:22.808Z,1.00
2023-05-19T19:13:55.942Z,1.00
2023-05-19T19:16:23.561Z,1.00
2023-05-19T19:18:53.084Z,1.00
2023-05-19T19:21:24.078Z,1.00
2023-05-19T19:23:56.804Z,1.00
2023-05-19T19:26:27.382Z,1.00
2023-05-19T19:28:57.410Z,1.00
2023-05-19T19:31:31.585Z,1.00
2023-05-19T19:34:03.114Z,1.00
2023-05-19T19:36:30.511Z,1.00
2023-05-19T19:38:57.645Z,1.00
2023-05-19T19:41:26.244Z,1.00
2023-05-19T19:43:53.638Z,1.00
2023-05-19T19:46:25.329Z,1.00
2023-05-19T19:48:52.223Z,1.00
2023-05-19T19:51:19.807Z,1.00
2023-05-19T19:53:51.630Z,1.00
2023-05-19T19:56:18.873Z,1.00
2023-05-19T19:58:46.775Z,1.00
2023-05-19T20:01:14.329Z,1.00
2023-05-19T20:03:42.234Z,1.00
2023-05-19T20:06:16.675Z,1.00
2023-05-19T20:08:45.463Z,1.00
2023-05-19T20:11:14.988Z,1.00
2023-05-19T20:13:42.498Z,1.00
2023-05-19T20:16:10.262Z,1.00
2023-05-19T20:18:41.033Z,1.00
2023-05-19T20:21:10.321Z,1.00
2023-05-19T20:23:40.940Z,1.00
2023-05-19T20:26:11.863Z,1.00
2023-05-19T20:28:42.936Z,1.00
2023-05-19T20:31:10.234Z,1.00
2023-05-19T20:33:37.532Z,1.00
2023-05-19T20:36:07.925Z,1.00
2023-05-19T20:38:36.234Z,1.00
2023-05-19T20:41:05.640Z,1.00
2023-05-19T20:43:36.709Z,1.00
2023-05-19T20:46:05.956Z,1.00
2023-05-19T20:48:37.310Z,1.00
2023-05-19T20:51:04.556Z,1.00
2023-05-19T20:53:31.629Z,1.00
2023-05-19T20:55:58.673Z,1.00
2023-05-19T20:58:30.502Z,1.00
2023-05-19T21:00:58.068Z,1.00
2023-05-19T21:03:27.104Z,1.00
2023-05-19T21:05:56.262Z,1.00
2023-05-19T21:08:25.213Z,1.00
2023-05-19T21:10:52.936Z,1.00
2023-05-19T21:13:20.034Z,1.00
2023-05-19T21:15:49.183Z,1.00
2023-05-19T21:18:16.290Z,1.00
2023-05-19T21:20:44.734Z,1.00
2023-05-19T21:23:12.213Z,1.00
2023-05-19T21:25:41.311Z,1.00
2023-05-19T21:28:11.585Z,1.00
2023-05-19T21:30:38.795Z,1.00
2023-05-19T21:33:05.932Z,1.00
2023-05-19T21:35:34.421Z,1.00
2023-05-19T21:38:12.026Z,1.00
2023-05-19T21:40:49.059Z,1.00
2023-05-19T21:43:16.536Z,1.00
2023-05-19T21:45:46.468Z,1.00
2023-05-19T21:48:13.764Z,1.00
2023-05-19T21:50:40.900Z,1.00
2023-05-19T21:53:07.905Z,1.00
2023-05-19T21:55:35.035Z,1.00
2023-05-19T21:58:02.714Z,1.00
2023-05-19T22:00:31.290Z,1.00
2023-05-19T22:02:58.590Z,1.00
2023-05-19T22:05:25.877Z,1.00
2023-05-19T22:07:53.113Z,1.00
2023-05-19T22:10:21.621Z,1.00
2023-05-19T22:12:51.235Z,1.00
2023-05-19T22:15:18.477Z,1.00
2023-05-19T22:17:45.536Z,1.00
2023-05-19T22:20:13.401Z,1.00
2023-05-19T22:22:40.784Z,1.00
2023-05-19T22:25:09.628Z,1.00
2023-05-19T22:27:36.899Z,1.00
2023-05-19T22:30:04.674Z,1.00
2023-05-19T22:32:32.497Z,1.00
2023-05-19T22:34:59.455Z,1.00
2023-05-19T22:37:27.217Z,1.00
2023-05-19T22:39:54.615Z,1.00
2023-05-19T22:42:21.532Z,1.00
2023-05-19T22:44:49.529Z,1.00
2023-05-19T22:47:16.545Z,1.00
2023-05-19T22:49:43.633Z,1.00
2023-05-19T22:52:11.761Z,1.00
2023-05-19T22:54:38.888Z,1.00
2023-05-19T22:57:06.479Z,1.00
2023-05-19T22:59:33.823Z,1.00
2023-05-19T23:02:00.926Z,1.00
2023-05-19T23:04:28.113Z,1.00
2023-05-19T23:06:55.096Z,1.00
2023-05-19T23:09:22.153Z,1.00
2023-05-19T23:11:50.069Z,1.00
2023-05-19T23:14:18.901Z,1.00
2023-05-19T23:16:46.136Z,1.00
2023-05-19T23:19:13.237Z,1.00
2023-05-19T23:21:41.264Z,1.00
2023-05-19T23:24:08.465Z,1.00
2023-05-19T23:26:35.463Z,1.00
2023-05-19T23:29:02.628Z,1.00
2023-05-19T23:31:29.729Z,1.00
2023-05-19T23:33:56.902Z,1.00
2023-05-19T23:36:23.891Z,1.00
2023-05-19T23:38:51.004Z,1.00
2023-05-19T23:41:17.987Z,1.00
2023-05-19T23:43:45.069Z,1.00
2023-05-19T23:46:12.236Z,1.00
2023-05-19T23:48:39.550Z,1.00
2023-05-19T23:51:06.581Z,1.00
2023-05-19T23:53:33.616Z,1.00
2023-05-19T23:56:00.664Z,1.00
2023-05-19T23:58:27.810Z,1.00
